sensor_id;sensor_type;location;lat;lon;timestamp;pressure;altitude;pressure_sealevel;temperature;humidity
41254;BME280;26987;59.928;30.306;2024-01-27T00:01:39;101461.19;;;-3.10;100.00
41254;BME280;26987;59.928;30.306;2024-01-27T00:04:07;101455.19;;;-3.12;100.00
41254;BME280;26987;59.928;30.306;2024-01-27T00:06:35;101458.22;;;-3.06;100.00
41254;BME280;26987;59.928;30.306;2024-01-27T00:09:03;101437.19;;;-3.19;100.00
41254;BME280;26987;59.928;30.306;2024-01-27T00:11:33;101413.66;;;-3.33;100.00
41254;BME280;26987;59.928;30.306;2024-01-27T00:14:01;101467.59;;;-3.01;100.00
41254;BME280;26987;59.928;30.306;2024-01-27T00:16:30;101454.22;;;-3.11;100.00
41254;BME280;26987;59.928;30.306;2024-01-27T00:18:57;101449.53;;;-3.06;100.00
41254;BME280;26987;59.928;30.306;2024-01-27T00:21:25;101455.69;;;-3.07;100.00
41254;BME280;26987;59.928;30.306;2024-01-27T00:23:54;101474.25;;;-2.96;100.00
41254;BME280;26987;59.928;30.306;2024-01-27T00:26:27;101471.63;;;-2.96;100.00
41254;BME280;26987;59.928;30.306;2024-01-27T00:28:56;101468.03;;;-2.95;100.00
41254;BME280;26987;59.928;30.306;2024-01-27T00:31:25;101464.44;;;-3.07;100.00
41254;BME280;26987;59.928;30.306;2024-01-27T00:33:53;101476.31;;;-3.01;100.00
41254;BME280;26987;59.928;30.306;2024-01-27T00:36:21;101467.16;;;-3.08;100.00
41254;BME280;26987;59.928;30.306;2024-01-27T00:38:49;101465.38;;;-3.08;100.00
41254;BME280;26987;59.928;30.306;2024-01-27T00:41:17;101472.69;;;-3.13;100.00
41254;BME280;26987;59.928;30.306;2024-01-27T00:43:45;101436.69;;;-3.38;100.00
41254;BME280;26987;59.928;30.306;2024-01-27T00:46:15;101467.00;;;-3.20;100.00
41254;BME280;26987;59.928;30.306;2024-01-27T00:48:43;101458.56;;;-3.25;100.00
41254;BME280;26987;59.928;30.306;2024-01-27T00:51:11;101463.19;;;-3.28;100.00
41254;BME280;26987;59.928;30.306;2024-01-27T00:53:39;101466.81;;;-3.17;100.00
41254;BME280;26987;59.928;30.306;2024-01-27T00:56:07;101474.97;;;-3.21;100.00
41254;BME280;26987;59.928;30.306;2024-01-27T00:58:35;101457.47;;;-3.35;100.00
41254;BME280;26987;59.928;30.306;2024-01-27T01:01:03;101466.63;;;-3.28;100.00
41254;BME280;26987;59.928;30.306;2024-01-27T01:03:33;101431.03;;;-3.60;100.00
41254;BME280;26987;59.928;30.306;2024-01-27T01:06:01;101492.19;;;-3.17;100.00
41254;BME280;26987;59.928;30.306;2024-01-27T01:08:29;101491.16;;;-3.14;100.00
41254;BME280;26987;59.928;30.306;2024-01-27T01:10:57;101483.00;;;-3.10;100.00
41254;BME280;26987;59.928;30.306;2024-01-27T01:13:25;101485.31;;;-3.05;100.00
41254;BME280;26987;59.928;30.306;2024-01-27T01:15:53;101484.06;;;-2.99;100.00
41254;BME280;26987;59.928;30.306;2024-01-27T01:18:21;101475.03;;;-3.08;100.00
41254;BME280;26987;59.928;30.306;2024-01-27T01:20:50;101495.13;;;-2.94;100.00
41254;BME280;26987;59.928;30.306;2024-01-27T01:23:18;101500.81;;;-2.87;100.00
41254;BME280;26987;59.928;30.306;2024-01-27T01:25:46;101492.22;;;-2.89;100.00
41254;BME280;26987;59.928;30.306;2024-01-27T01:28:14;101502.94;;;-2.80;100.00
41254;BME280;26987;59.928;30.306;2024-01-27T01:30:42;101491.50;;;-2.79;100.00
41254;BME280;26987;59.928;30.306;2024-01-27T01:33:10;101500.72;;;-2.86;100.00
41254;BME280;26987;59.928;30.306;2024-01-27T01:35:38;101499.00;;;-3.00;100.00
41254;BME280;26987;59.928;30.306;2024-01-27T01:38:07;101498.84;;;-3.11;100.00
41254;BME280;26987;59.928;30.306;2024-01-27T01:40:35;101504.88;;;-3.24;100.00
41254;BME280;26987;59.928;30.306;2024-01-27T01:43:04;101504.31;;;-3.29;100.00
41254;BME280;26987;59.928;30.306;2024-01-27T01:45:36;101485.63;;;-3.52;100.00
41254;BME280;26987;59.928;30.306;2024-01-27T01:48:07;101511.19;;;-3.41;100.00
41254;BME280;26987;59.928;30.306;2024-01-27T01:50:35;101516.63;;;-3.44;100.00
41254;BME280;26987;59.928;30.306;2024-01-27T01:53:04;101514.00;;;-3.44;100.00
41254;BME280;26987;59.928;30.306;2024-01-27T01:55:34;101503.31;;;-3.41;100.00
41254;BME280;26987;59.928;30.306;2024-01-27T01:58:02;101515.94;;;-3.33;100.00
41254;BME280;26987;59.928;30.306;2024-01-27T02:00:31;101514.16;;;-3.33;100.00
41254;BME280;26987;59.928;30.306;2024-01-27T02:02:59;101509.75;;;-3.32;100.00
41254;BME280;26987;59.928;30.306;2024-01-27T02:05:27;101513.13;;;-3.30;100.00
41254;BME280;26987;59.928;30.306;2024-01-27T02:07:55;101515.66;;;-3.28;100.00
41254;BME280;26987;59.928;30.306;2024-01-27T02:10:26;101519.88;;;-3.26;100.00
41254;BME280;26987;59.928;30.306;2024-01-27T02:12:55;101505.28;;;-3.30;100.00
41254;BME280;26987;59.928;30.306;2024-01-27T02:15:24;101520.78;;;-3.12;100.00
41254;BME280;26987;59.928;30.306;2024-01-27T02:17:52;101462.94;;;-3.38;100.00
41254;BME280;26987;59.928;30.306;2024-01-27T02:20:20;101511.38;;;-3.02;100.00
41254;BME280;26987;59.928;30.306;2024-01-27T02:22:48;101506.41;;;-3.07;100.00
41254;BME280;26987;59.928;30.306;2024-01-27T02:25:17;101520.91;;;-2.86;100.00
41254;BME280;26987;59.928;30.306;2024-01-27T02:27:45;101513.13;;;-2.88;100.00
41254;BME280;26987;59.928;30.306;2024-01-27T02:30:13;101520.06;;;-2.74;100.00
41254;BME280;26987;59.928;30.306;2024-01-27T02:32:41;101518.97;;;-2.70;100.00
41254;BME280;26987;59.928;30.306;2024-01-27T02:35:09;101516.13;;;-2.67;100.00
41254;BME280;26987;59.928;30.306;2024-01-27T02:37:36;101509.28;;;-2.69;100.00
41254;BME280;26987;59.928;30.306;2024-01-27T02:40:06;101513.28;;;-2.63;100.00
41254;BME280;26987;59.928;30.306;2024-01-27T02:42:35;101517.81;;;-2.66;100.00
41254;BME280;26987;59.928;30.306;2024-01-27T02:45:04;101522.84;;;-2.62;100.00
41254;BME280;26987;59.928;30.306;2024-01-27T02:47:32;101508.78;;;-2.61;100.00
41254;BME280;26987;59.928;30.306;2024-01-27T02:50:00;101514.22;;;-2.64;100.00
41254;BME280;26987;59.928;30.306;2024-01-27T02:52:28;101533.16;;;-2.59;100.00
41254;BME280;26987;59.928;30.306;2024-01-27T02:54:56;101531.47;;;-2.60;100.00
41254;BME280;26987;59.928;30.306;2024-01-27T02:57:24;101525.38;;;-2.61;100.00
41254;BME280;26987;59.928;30.306;2024-01-27T02:59:53;101527.91;;;-2.59;100.00
41254;BME280;26987;59.928;30.306;2024-01-27T03:02:21;101507.50;;;-2.69;100.00
41254;BME280;26987;59.928;30.306;2024-01-27T03:04:49;101514.13;;;-2.63;100.00
41254;BME280;26987;59.928;30.306;2024-01-27T03:07:17;101526.31;;;-2.62;100.00
41254;BME280;26987;59.928;30.306;2024-01-27T03:09:45;101526.41;;;-2.63;100.00
41254;BME280;26987;59.928;30.306;2024-01-27T03:12:14;101515.22;;;-2.80;100.00
41254;BME280;26987;59.928;30.306;2024-01-27T03:14:42;101531.34;;;-2.72;100.00
41254;BME280;26987;59.928;30.306;2024-01-27T03:17:12;101523.84;;;-2.78;100.00
41254;BME280;26987;59.928;30.306;2024-01-27T03:19:40;101523.31;;;-2.83;100.00
41254;BME280;26987;59.928;30.306;2024-01-27T03:22:08;101523.41;;;-2.85;100.00
41254;BME280;26987;59.928;30.306;2024-01-27T03:24:37;101528.00;;;-2.88;100.00
41254;BME280;26987;59.928;30.306;2024-01-27T03:27:05;101522.75;;;-2.88;100.00
41254;BME280;26987;59.928;30.306;2024-01-27T03:29:33;101526.25;;;-2.88;100.00
41254;BME280;26987;59.928;30.306;2024-01-27T03:32:01;101524.72;;;-2.92;100.00
41254;BME280;26987;59.928;30.306;2024-01-27T03:34:30;101514.66;;;-2.98;100.00
41254;BME280;26987;59.928;30.306;2024-01-27T03:36:58;101523.34;;;-2.98;100.00
41254;BME280;26987;59.928;30.306;2024-01-27T03:39:26;101521.47;;;-2.96;100.00
41254;BME280;26987;59.928;30.306;2024-01-27T03:41:53;101492.28;;;-3.19;100.00
41254;BME280;26987;59.928;30.306;2024-01-27T03:44:21;101506.81;;;-3.13;100.00
41254;BME280;26987;59.928;30.306;2024-01-27T03:46:49;101514.47;;;-3.10;100.00
41254;BME280;26987;59.928;30.306;2024-01-27T03:49:17;101533.13;;;-3.00;100.00
41254;BME280;26987;59.928;30.306;2024-01-27T03:51:47;101521.69;;;-2.99;100.00
41254;BME280;26987;59.928;30.306;2024-01-27T03:54:14;101522.09;;;-2.92;100.00
41254;BME280;26987;59.928;30.306;2024-01-27T03:56:42;101538.97;;;-2.82;100.00
41254;BME280;26987;59.928;30.306;2024-01-27T03:59:10;101543.91;;;-2.77;100.00
41254;BME280;26987;59.928;30.306;2024-01-27T04:01:38;101552.53;;;-2.75;100.00
41254;BME280;26987;59.928;30.306;2024-01-27T04:04:06;101540.09;;;-2.86;100.00
41254;BME280;26987;59.928;30.306;2024-01-27T04:06:37;101531.31;;;-2.85;100.00
41254;BME280;26987;59.928;30.306;2024-01-27T04:09:07;101544.47;;;-2.72;100.00
41254;BME280;26987;59.928;30.306;2024-01-27T04:11:36;101547.84;;;-2.70;100.00
41254;BME280;26987;59.928;30.306;2024-01-27T04:14:05;101544.47;;;-2.72;100.00
41254;BME280;26987;59.928;30.306;2024-01-27T04:16:33;101553.38;;;-2.74;100.00
41254;BME280;26987;59.928;30.306;2024-01-27T04:19:01;101555.56;;;-2.81;100.00
41254;BME280;26987;59.928;30.306;2024-01-27T04:21:29;101564.56;;;-2.85;100.00
41254;BME280;26987;59.928;30.306;2024-01-27T04:23:58;101563.28;;;-2.93;100.00
41254;BME280;26987;59.928;30.306;2024-01-27T04:26:27;101569.25;;;-2.91;100.00
41254;BME280;26987;59.928;30.306;2024-01-27T04:28:55;101556.75;;;-3.00;100.00
41254;BME280;26987;59.928;30.306;2024-01-27T04:31:23;101573.78;;;-2.93;100.00
41254;BME280;26987;59.928;30.306;2024-01-27T04:33:50;101574.22;;;-2.86;100.00
41254;BME280;26987;59.928;30.306;2024-01-27T04:36:25;101569.44;;;-2.79;100.00
41254;BME280;26987;59.928;30.306;2024-01-27T04:38:54;101565.22;;;-2.82;100.00
41254;BME280;26987;59.928;30.306;2024-01-27T04:41:22;101569.63;;;-2.82;100.00
41254;BME280;26987;59.928;30.306;2024-01-27T04:43:51;101569.81;;;-2.85;100.00
41254;BME280;26987;59.928;30.306;2024-01-27T04:46:21;101585.19;;;-2.79;100.00
41254;BME280;26987;59.928;30.306;2024-01-27T04:48:50;101578.22;;;-2.80;100.00
41254;BME280;26987;59.928;30.306;2024-01-27T04:51:17;101585.91;;;-2.77;100.00
41254;BME280;26987;59.928;30.306;2024-01-27T04:53:45;101571.31;;;-2.81;100.00
41254;BME280;26987;59.928;30.306;2024-01-27T04:56:13;101585.72;;;-2.74;100.00
41254;BME280;26987;59.928;30.306;2024-01-27T04:58:41;101593.88;;;-2.64;100.00
41254;BME280;26987;59.928;30.306;2024-01-27T05:01:10;101582.06;;;-2.71;100.00
41254;BME280;26987;59.928;30.306;2024-01-27T05:03:38;101602.38;;;-2.60;100.00
41254;BME280;26987;59.928;30.306;2024-01-27T05:06:07;101613.44;;;-2.55;100.00
41254;BME280;26987;59.928;30.306;2024-01-27T05:08:36;101616.56;;;-2.63;100.00
41254;BME280;26987;59.928;30.306;2024-01-27T05:11:06;101605.81;;;-2.73;100.00
41254;BME280;26987;59.928;30.306;2024-01-27T05:13:34;101631.88;;;-2.70;100.00
41254;BME280;26987;59.928;30.306;2024-01-27T05:16:01;101606.56;;;-2.85;100.00
41254;BME280;26987;59.928;30.306;2024-01-27T05:18:31;101623.25;;;-2.72;100.00
41254;BME280;26987;59.928;30.306;2024-01-27T05:20:59;101622.84;;;-2.66;100.00
41254;BME280;26987;59.928;30.306;2024-01-27T05:23:27;101638.22;;;-2.59;100.00
41254;BME280;26987;59.928;30.306;2024-01-27T05:25:55;101639.69;;;-2.55;100.00
41254;BME280;26987;59.928;30.306;2024-01-27T05:28:23;101603.00;;;-2.84;100.00
41254;BME280;26987;59.928;30.306;2024-01-27T05:30:50;101639.13;;;-2.60;100.00
41254;BME280;26987;59.928;30.306;2024-01-27T05:33:19;101639.91;;;-2.58;100.00
41254;BME280;26987;59.928;30.306;2024-01-27T05:35:48;101588.59;;;-2.92;100.00
41254;BME280;26987;59.928;30.306;2024-01-27T05:38:16;101643.19;;;-2.55;100.00
41254;BME280;26987;59.928;30.306;2024-01-27T05:40:44;101643.09;;;-2.53;100.00
41254;BME280;26987;59.928;30.306;2024-01-27T05:43:12;101649.16;;;-2.53;100.00
41254;BME280;26987;59.928;30.306;2024-01-27T05:45:40;101643.28;;;-2.56;100.00
41254;BME280;26987;59.928;30.306;2024-01-27T05:48:08;101640.28;;;-2.64;100.00
41254;BME280;26987;59.928;30.306;2024-01-27T05:50:36;101643.56;;;-2.61;100.00
41254;BME280;26987;59.928;30.306;2024-01-27T05:53:05;101660.16;;;-2.60;100.00
41254;BME280;26987;59.928;30.306;2024-01-27T05:55:33;101647.44;;;-2.67;100.00
41254;BME280;26987;59.928;30.306;2024-01-27T05:58:01;101651.53;;;-2.62;100.00
41254;BME280;26987;59.928;30.306;2024-01-27T06:00:29;101655.09;;;-2.63;100.00
41254;BME280;26987;59.928;30.306;2024-01-27T06:02:57;101648.94;;;-2.77;100.00
41254;BME280;26987;59.928;30.306;2024-01-27T06:05:25;101648.00;;;-2.76;100.00
41254;BME280;26987;59.928;30.306;2024-01-27T06:07:53;101651.34;;;-2.74;100.00
41254;BME280;26987;59.928;30.306;2024-01-27T06:10:22;101660.75;;;-2.70;100.00
41254;BME280;26987;59.928;30.306;2024-01-27T06:12:51;101661.66;;;-2.71;100.00
41254;BME280;26987;59.928;30.306;2024-01-27T06:15:19;101647.81;;;-2.73;100.00
41254;BME280;26987;59.928;30.306;2024-01-27T06:17:47;101654.56;;;-2.69;100.00
41254;BME280;26987;59.928;30.306;2024-01-27T06:20:15;101670.56;;;-2.59;100.00
41254;BME280;26987;59.928;30.306;2024-01-27T06:22:44;101673.28;;;-2.60;100.00
41254;BME280;26987;59.928;30.306;2024-01-27T06:25:12;101678.91;;;-2.52;100.00
41254;BME280;26987;59.928;30.306;2024-01-27T06:27:42;101677.00;;;-2.50;100.00
41254;BME280;26987;59.928;30.306;2024-01-27T06:30:10;101681.34;;;-2.49;100.00
41254;BME280;26987;59.928;30.306;2024-01-27T06:32:38;101683.88;;;-2.47;100.00
41254;BME280;26987;59.928;30.306;2024-01-27T06:35:07;101667.84;;;-2.57;100.00
41254;BME280;26987;59.928;30.306;2024-01-27T06:37:35;101620.47;;;-2.83;100.00
41254;BME280;26987;59.928;30.306;2024-01-27T06:40:04;101685.16;;;-2.40;100.00
41254;BME280;26987;59.928;30.306;2024-01-27T06:42:32;101660.31;;;-2.49;100.00
41254;BME280;26987;59.928;30.306;2024-01-27T06:45:01;101674.56;;;-2.38;100.00
41254;BME280;26987;59.928;30.306;2024-01-27T06:47:30;101681.00;;;-2.30;100.00
41254;BME280;26987;59.928;30.306;2024-01-27T06:49:57;101674.34;;;-2.35;100.00
41254;BME280;26987;59.928;30.306;2024-01-27T06:52:25;101700.38;;;-2.18;100.00
41254;BME280;26987;59.928;30.306;2024-01-27T06:54:53;101704.50;;;-2.13;100.00
41254;BME280;26987;59.928;30.306;2024-01-27T06:57:23;101710.69;;;-2.14;100.00
41254;BME280;26987;59.928;30.306;2024-01-27T06:59:52;101702.72;;;-2.13;100.00
41254;BME280;26987;59.928;30.306;2024-01-27T07:02:23;101695.69;;;-2.12;100.00
41254;BME280;26987;59.928;30.306;2024-01-27T07:04:52;101697.66;;;-2.16;100.00
41254;BME280;26987;59.928;30.306;2024-01-27T07:07:27;101703.69;;;-2.14;100.00
41254;BME280;26987;59.928;30.306;2024-01-27T07:09:56;101702.81;;;-2.14;100.00
41254;BME280;26987;59.928;30.306;2024-01-27T07:12:24;101719.03;;;-2.08;100.00
41254;BME280;26987;59.928;30.306;2024-01-27T07:14:52;101707.50;;;-2.05;100.00
41254;BME280;26987;59.928;30.306;2024-01-27T07:17:22;101721.91;;;-1.98;100.00
41254;BME280;26987;59.928;30.306;2024-01-27T07:19:50;101718.13;;;-1.94;100.00
41254;BME280;26987;59.928;30.306;2024-01-27T07:22:18;101731.19;;;-1.92;100.00
41254;BME280;26987;59.928;30.306;2024-01-27T07:24:46;101706.31;;;-2.14;100.00
41254;BME280;26987;59.928;30.306;2024-01-27T07:27:17;101746.09;;;-1.93;100.00
41254;BME280;26987;59.928;30.306;2024-01-27T07:29:45;101745.56;;;-1.98;100.00
41254;BME280;26987;59.928;30.306;2024-01-27T07:32:13;101745.09;;;-1.90;100.00
41254;BME280;26987;59.928;30.306;2024-01-27T07:34:43;101737.69;;;-1.98;100.00
41254;BME280;26987;59.928;30.306;2024-01-27T07:37:11;101759.81;;;-1.87;100.00
41254;BME280;26987;59.928;30.306;2024-01-27T07:39:39;101753.59;;;-1.86;100.00
41254;BME280;26987;59.928;30.306;2024-01-27T07:42:07;101759.41;;;-1.81;100.00
41254;BME280;26987;59.928;30.306;2024-01-27T07:44:36;101761.09;;;-1.80;100.00
41254;BME280;26987;59.928;30.306;2024-01-27T07:47:04;101771.97;;;-1.72;100.00
41254;BME280;26987;59.928;30.306;2024-01-27T07:49:32;101750.78;;;-1.83;100.00
41254;BME280;26987;59.928;30.306;2024-01-27T07:52:01;101773.78;;;-1.59;100.00
41254;BME280;26987;59.928;30.306;2024-01-27T07:54:29;101777.06;;;-1.56;100.00
41254;BME280;26987;59.928;30.306;2024-01-27T07:56:58;101769.16;;;-1.56;100.00
41254;BME280;26987;59.928;30.306;2024-01-27T07:59:26;101782.22;;;-1.54;100.00
41254;BME280;26987;59.928;30.306;2024-01-27T08:01:54;101785.34;;;-1.62;100.00
41254;BME280;26987;59.928;30.306;2024-01-27T08:04:22;101803.06;;;-1.51;100.00
41254;BME280;26987;59.928;30.306;2024-01-27T08:06:50;101799.88;;;-1.56;100.00
41254;BME280;26987;59.928;30.306;2024-01-27T08:09:20;101806.41;;;-1.49;100.00
41254;BME280;26987;59.928;30.306;2024-01-27T08:11:48;101803.00;;;-1.64;100.00
41254;BME280;26987;59.928;30.306;2024-01-27T08:14:18;101798.06;;;-1.69;100.00
41254;BME280;26987;59.928;30.306;2024-01-27T08:16:47;101817.78;;;-1.61;100.00
41254;BME280;26987;59.928;30.306;2024-01-27T08:19:15;101829.00;;;-1.59;100.00
41254;BME280;26987;59.928;30.306;2024-01-27T08:21:46;101813.44;;;-1.62;100.00
41254;BME280;26987;59.928;30.306;2024-01-27T08:24:14;101819.88;;;-1.54;100.00
41254;BME280;26987;59.928;30.306;2024-01-27T08:26:44;101831.06;;;-1.50;100.00
41254;BME280;26987;59.928;30.306;2024-01-27T08:29:12;101829.28;;;-1.49;100.00
41254;BME280;26987;59.928;30.306;2024-01-27T08:31:40;101833.78;;;-1.52;100.00
41254;BME280;26987;59.928;30.306;2024-01-27T08:34:08;101840.00;;;-1.53;100.00
41254;BME280;26987;59.928;30.306;2024-01-27T08:36:38;101836.72;;;-1.56;100.00
41254;BME280;26987;59.928;30.306;2024-01-27T08:39:06;101832.31;;;-1.56;100.00
41254;BME280;26987;59.928;30.306;2024-01-27T08:41:35;101831.06;;;-1.50;100.00
41254;BME280;26987;59.928;30.306;2024-01-27T08:44:04;101837.91;;;-1.47;100.00
41254;BME280;26987;59.928;30.306;2024-01-27T08:46:32;101831.25;;;-1.53;100.00
41254;BME280;26987;59.928;30.306;2024-01-27T08:49:00;101819.44;;;-1.60;100.00
41254;BME280;26987;59.928;30.306;2024-01-27T08:51:28;101832.53;;;-1.46;100.00
41254;BME280;26987;59.928;30.306;2024-01-27T08:53:56;101841.59;;;-1.37;100.00
41254;BME280;26987;59.928;30.306;2024-01-27T08:56:24;101835.16;;;-1.46;100.00
41254;BME280;26987;59.928;30.306;2024-01-27T08:58:52;101851.09;;;-1.34;100.00
41254;BME280;26987;59.928;30.306;2024-01-27T09:01:21;101815.47;;;-1.53;100.00
41254;BME280;26987;59.928;30.306;2024-01-27T09:03:49;101825.78;;;-1.50;100.00
41254;BME280;26987;59.928;30.306;2024-01-27T09:06:17;101854.25;;;-1.29;100.00
41254;BME280;26987;59.928;30.306;2024-01-27T09:08:45;101859.78;;;-1.19;100.00
41254;BME280;26987;59.928;30.306;2024-01-27T09:11:13;101866.94;;;-1.21;100.00
41254;BME280;26987;59.928;30.306;2024-01-27T09:13:41;101860.59;;;-1.19;100.00
41254;BME280;26987;59.928;30.306;2024-01-27T09:16:11;101866.63;;;-1.17;100.00
41254;BME280;26987;59.928;30.306;2024-01-27T09:18:42;101850.59;;;-1.27;100.00
41254;BME280;26987;59.928;30.306;2024-01-27T09:21:10;101869.91;;;-1.13;100.00
41254;BME280;26987;59.928;30.306;2024-01-27T09:23:38;101871.50;;;-1.10;100.00
41254;BME280;26987;59.928;30.306;2024-01-27T09:26:06;101867.16;;;-1.11;100.00
41254;BME280;26987;59.928;30.306;2024-01-27T09:28:34;101868.97;;;-1.12;100.00
41254;BME280;26987;59.928;30.306;2024-01-27T09:31:03;101867.50;;;-1.03;100.00
41254;BME280;26987;59.928;30.306;2024-01-27T09:33:31;101875.09;;;-0.98;100.00
41254;BME280;26987;59.928;30.306;2024-01-27T09:36:04;101868.78;;;-0.96;100.00
41254;BME280;26987;59.928;30.306;2024-01-27T09:38:32;101874.25;;;-0.99;100.00
41254;BME280;26987;59.928;30.306;2024-01-27T09:41:01;101870.13;;;-1.03;100.00
41254;BME280;26987;59.928;30.306;2024-01-27T09:43:29;101806.72;;;-1.54;100.00
41254;BME280;26987;59.928;30.306;2024-01-27T09:45:59;101804.75;;;-1.50;100.00
41254;BME280;26987;59.928;30.306;2024-01-27T09:48:29;101864.41;;;-1.10;100.00
41254;BME280;26987;59.928;30.306;2024-01-27T09:50:58;101848.19;;;-1.17;100.00
41254;BME280;26987;59.928;30.306;2024-01-27T09:53:28;101860.75;;;-1.07;100.00
41254;BME280;26987;59.928;30.306;2024-01-27T09:55:58;101869.19;;;-1.02;100.00
41254;BME280;26987;59.928;30.306;2024-01-27T09:58:28;101868.44;;;-1.04;100.00
41254;BME280;26987;59.928;30.306;2024-01-27T10:00:57;101857.38;;;-1.09;100.00
41254;BME280;26987;59.928;30.306;2024-01-27T10:03:26;101866.75;;;-1.05;100.00
41254;BME280;26987;59.928;30.306;2024-01-27T10:05:56;101864.22;;;-1.07;100.00
41254;BME280;26987;59.928;30.306;2024-01-27T10:08:24;101876.16;;;-1.01;100.00
41254;BME280;26987;59.928;30.306;2024-01-27T10:10:55;101881.94;;;-0.96;100.00
41254;BME280;26987;59.928;30.306;2024-01-27T10:13:23;101864.00;;;-1.04;100.00
41254;BME280;26987;59.928;30.306;2024-01-27T10:16:00;101870.25;;;-0.92;100.00
41254;BME280;26987;59.928;30.306;2024-01-27T10:18:28;101877.00;;;-0.87;100.00
41254;BME280;26987;59.928;30.306;2024-01-27T10:20:57;101863.94;;;-0.89;100.00
41254;BME280;26987;59.928;30.306;2024-01-27T10:23:25;101873.00;;;-0.80;100.00
41254;BME280;26987;59.928;30.306;2024-01-27T10:25:55;101873.53;;;-0.75;100.00
41254;BME280;26987;59.928;30.306;2024-01-27T10:28:23;101873.31;;;-0.72;100.00
41254;BME280;26987;59.928;30.306;2024-01-27T10:30:51;101883.66;;;-0.69;100.00
41254;BME280;26987;59.928;30.306;2024-01-27T10:33:19;101888.50;;;-0.62;100.00
41254;BME280;26987;59.928;30.306;2024-01-27T10:35:57;101882.50;;;-0.52;100.00
41254;BME280;26987;59.928;30.306;2024-01-27T10:38:34;101873.56;;;-0.62;100.00
41254;BME280;26987;59.928;30.306;2024-01-27T10:41:07;101844.03;;;-0.80;100.00
41254;BME280;26987;59.928;30.306;2024-01-27T10:43:37;101865.31;;;-0.70;100.00
41254;BME280;26987;59.928;30.306;2024-01-27T10:46:07;101761.38;;;-1.44;100.00
41254;BME280;26987;59.928;30.306;2024-01-27T10:48:35;101889.97;;;-0.58;100.00
41254;BME280;26987;59.928;30.306;2024-01-27T10:51:07;101881.88;;;-0.55;100.00
41254;BME280;26987;59.928;30.306;2024-01-27T10:53:36;101882.41;;;-0.50;100.00
41254;BME280;26987;59.928;30.306;2024-01-27T10:56:08;101879.78;;;-0.50;100.00
41254;BME280;26987;59.928;30.306;2024-01-27T10:58:39;101893.25;;;-0.42;100.00
41254;BME280;26987;59.928;30.306;2024-01-27T11:01:09;101897.06;;;-0.46;100.00
41254;BME280;26987;59.928;30.306;2024-01-27T11:03:38;101894.09;;;-0.41;100.00
41254;BME280;26987;59.928;30.306;2024-01-27T11:06:07;101891.25;;;-0.38;100.00
41254;BME280;26987;59.928;30.306;2024-01-27T11:08:36;101897.34;;;-0.38;100.00
41254;BME280;26987;59.928;30.306;2024-01-27T11:11:07;101900.19;;;-0.41;100.00
41254;BME280;26987;59.928;30.306;2024-01-27T11:13:36;101895.88;;;-0.42;100.00
41254;BME280;26987;59.928;30.306;2024-01-27T11:16:06;101894.53;;;-0.47;100.00
41254;BME280;26987;59.928;30.306;2024-01-27T11:18:42;101890.00;;;-0.45;100.00
41254;BME280;26987;59.928;30.306;2024-01-27T11:21:13;101896.44;;;-0.36;100.00
41254;BME280;26987;59.928;30.306;2024-01-27T11:23:43;101900.09;;;-0.39;100.00
41254;BME280;26987;59.928;30.306;2024-01-27T11:26:20;101903.16;;;-0.32;100.00
41254;BME280;26987;59.928;30.306;2024-01-27T11:28:49;101908.34;;;-0.44;100.00
41254;BME280;26987;59.928;30.306;2024-01-27T11:31:18;101916.47;;;-0.47;100.00
41254;BME280;26987;59.928;30.306;2024-01-27T11:33:47;101916.34;;;-0.45;100.00
41254;BME280;26987;59.928;30.306;2024-01-27T11:36:19;101921.72;;;-0.47;100.00
41254;BME280;26987;59.928;30.306;2024-01-27T11:38:48;101926.25;;;-0.49;100.00
41254;BME280;26987;59.928;30.306;2024-01-27T11:41:28;101926.34;;;-0.38;100.00
41254;BME280;26987;59.928;30.306;2024-01-27T11:43:57;101911.06;;;-0.58;100.00
41254;BME280;26987;59.928;30.306;2024-01-27T11:46:27;101922.66;;;-0.48;100.00
41254;BME280;26987;59.928;30.306;2024-01-27T11:48:55;101916.97;;;-0.55;100.00
41254;BME280;26987;59.928;30.306;2024-01-27T11:51:24;101922.88;;;-0.51;100.00
41254;BME280;26987;59.928;30.306;2024-01-27T11:53:53;101949.25;;;-0.38;100.00
41254;BME280;26987;59.928;30.306;2024-01-27T11:56:20;101928.59;;;-0.57;100.00
41254;BME280;26987;59.928;30.306;2024-01-27T11:58:50;101950.94;;;-0.50;100.00
41254;BME280;26987;59.928;30.306;2024-01-27T12:01:18;101951.66;;;-0.48;100.00
41254;BME280;26987;59.928;30.306;2024-01-27T12:03:46;101972.63;;;-0.46;100.00
41254;BME280;26987;59.928;30.306;2024-01-27T12:06:15;101962.09;;;-0.46;100.00
41254;BME280;26987;59.928;30.306;2024-01-27T12:08:43;101934.38;;;-0.52;100.00
41254;BME280;26987;59.928;30.306;2024-01-27T12:11:13;101960.81;;;-0.41;100.00
41254;BME280;26987;59.928;30.306;2024-01-27T12:13:41;101828.78;;;-1.42;100.00
41254;BME280;26987;59.928;30.306;2024-01-27T12:16:11;101971.06;;;-0.49;100.00
41254;BME280;26987;59.928;30.306;2024-01-27T12:18:39;101940.53;;;-0.79;100.00
41254;BME280;26987;59.928;30.306;2024-01-27T12:21:07;101977.25;;;-0.63;100.00
41254;BME280;26987;59.928;30.306;2024-01-27T12:23:35;101979.97;;;-0.65;100.00
41254;BME280;26987;59.928;30.306;2024-01-27T12:26:03;101958.97;;;-0.79;100.00
41254;BME280;26987;59.928;30.306;2024-01-27T12:28:31;101986.00;;;-0.62;100.00
41254;BME280;26987;59.928;30.306;2024-01-27T12:31:04;101991.28;;;-0.62;100.00
41254;BME280;26987;59.928;30.306;2024-01-27T12:33:33;101984.22;;;-0.62;100.00
41254;BME280;26987;59.928;30.306;2024-01-27T12:36:01;101989.78;;;-0.67;100.00
41254;BME280;26987;59.928;30.306;2024-01-27T12:38:29;101989.03;;;-0.69;100.00